createdAt,value
2023-03-27T02:41:22.244Z,100.00
2023-03-27T02:42:47.871Z,100.00
2023-03-27T02:44:17.766Z,100.00
2023-03-27T02:45:49.599Z,100.00
2023-03-27T02:47:09.324Z,100.00
2023-03-27T02:48:34.557Z,100.00
2023-03-27T02:49:46.415Z,100.00
2023-03-27T02:51:01.839Z,100.00
2023-03-27T02:52:18.440Z,100.00
2023-03-27T02:53:25.238Z,100.00
2023-03-27T02:54:35.714Z,100.00
2023-03-27T02:55:45.399Z,100.00
2023-03-27T02:56:56.298Z,100.00
2023-03-27T02:58:10.372Z,100.00
2023-03-27T02:59:30.886Z,100.00
2023-03-27T03:00:39.635Z,100.00
2023-03-27T03:02:01.462Z,100.00
2023-03-27T03:03:27.803Z,100.00
2023-03-27T03:04:43.246Z,100.00
2023-03-27T03:05:52.151Z,100.00
2023-03-27T03:06:56.247Z,100.00
2023-03-27T03:07:59.046Z,100.00
2023-03-27T03:09:06.700Z,100.00
2023-03-27T03:10:14.014Z,100.00
2023-03-27T03:11:16.478Z,100.00
2023-03-27T03:12:18.887Z,100.00
2023-03-27T03:13:21.595Z,100.00
2023-03-27T03:14:40.154Z,100.00
2023-03-27T03:15:42.570Z,100.00
2023-03-27T03:16:47.476Z,100.00
2023-03-27T03:17:50.004Z,100.00
2023-03-27T03:18:52.755Z,100.00
2023-03-27T03:19:55.184Z,100.00
2023-03-27T03:20:57.859Z,100.00
2023-03-27T03:22:03.185Z,100.00
2023-03-27T03:23:09.413Z,100.00
2023-03-27T03:24:12.922Z,100.00
2023-03-27T03:25:18.365Z,100.00
2023-03-27T03:26:21.432Z,100.00
2023-03-27T03:27:24.067Z,100.00
2023-03-27T03:28:35.676Z,100.00
2023-03-27T03:29:38.228Z,100.00
2023-03-27T03:30:54.953Z,100.00
2023-03-27T03:32:02.724Z,100.00
2023-03-27T03:33:07.594Z,100.00
2023-03-27T03:34:19.110Z,100.00
2023-03-27T03:35:25.027Z,100.00
2023-03-27T03:36:31.101Z,100.00
2023-03-27T03:37:38.583Z,100.00
2023-03-27T03:38:43.226Z,100.00
2023-03-27T03:39:52.306Z,100.00
2023-03-27T03:40:56.584Z,100.00
2023-03-27T03:41:59.135Z,100.00
2023-03-27T03:43:03.784Z,100.00
2023-03-27T03:44:06.425Z,100.00
2023-03-27T03:45:09.393Z,100.00
2023-03-27T03:46:11.786Z,100.00
2023-03-27T03:47:18.133Z,100.00
2023-03-27T03:48:21.802Z,100.00
2023-03-27T03:49:24.692Z,100.00
2023-03-27T03:50:26.959Z,100.00
2023-03-27T03:51:31.337Z,100.00
2023-03-27T03:52:33.649Z,100.00
2023-03-27T03:53:36.463Z,100.00
2023-03-27T03:54:40.157Z,100.00
2023-03-27T03:55:44.068Z,100.00
2023-03-27T03:56:46.565Z,100.00
2023-03-27T03:57:50.149Z,100.00
2023-03-27T03:58:59.097Z,100.00
2023-03-27T04:00:02.335Z,100.00
2023-03-27T04:01:20.669Z,100.00
2023-03-27T04:02:29.846Z,100.00
2023-03-27T04:03:39.054Z,100.00
2023-03-27T04:04:43.770Z,100.00
2023-03-27T04:05:48.720Z,100.00
2023-03-27T04:06:51.299Z,100.00
2023-03-27T04:07:53.836Z,100.00
2023-03-27T04:09:26.625Z,100.00
2023-03-27T04:10:42.514Z,100.00
2023-03-27T04:11:54.326Z,100.00
2023-03-27T04:13:17.880Z,100.00
2023-03-27T04:14:38.892Z,100.00
2023-03-27T04:15:55.522Z,100.00
2023-03-27T04:17:10.181Z,100.00
2023-03-27T04:18:14.973Z,100.00
2023-03-27T04:19:19.763Z,100.00
2023-03-27T04:20:28.080Z,100.00
2023-03-27T04:21:31.768Z,100.00
2023-03-27T04:22:38.049Z,100.00
2023-03-27T04:23:45.670Z,100.00
2023-03-27T04:24:50.855Z,100.00
2023-03-27T04:26:00.167Z,100.00
2023-03-27T04:27:12.501Z,100.00
2023-03-27T04:28:37.054Z,100.00
2023-03-27T04:29:59.183Z,100.00
2023-03-27T04:31:30.931Z,100.00
2023-03-27T04:33:00.110Z,100.00
2023-03-27T04:34:38.319Z,100.00
2023-03-27T04:36:06.894Z,100.00
2023-03-27T04:37:30.469Z,100.00
2023-03-27T04:38:56.528Z,100.00
2023-03-27T04:40:00.275Z,100.00
2023-03-27T04:41:03.727Z,100.00
2023-03-27T04:42:06.503Z,100.00
2023-03-27T04:43:08.948Z,100.00
2023-03-27T04:44:11.519Z,100.00
2023-03-27T04:45:20.147Z,100.00
2023-03-27T04:46:24.431Z,100.00
2023-03-27T04:47:37.849Z,100.00
2023-03-27T04:48:40.918Z,100.00
2023-03-27T04:49:54.994Z,100.00
2023-03-27T04:51:03.158Z,100.00
2023-03-27T04:52:09.348Z,100.00
2023-03-27T04:53:12.533Z,100.00
2023-03-27T04:54:20.285Z,100.00
2023-03-27T04:55:25.789Z,100.00
2023-03-27T04:56:30.775Z,100.00
2023-03-27T04:57:34.695Z,100.00
2023-03-27T04:58:37.828Z,100.00
2023-03-27T04:59:46.186Z,100.00
2023-03-27T05:01:17.455Z,100.00
2023-03-27T05:02:38.255Z,100.00
2023-03-27T05:04:02.481Z,100.00
2023-03-27T05:05:16.913Z,100.00
2023-03-27T05:06:19.427Z,100.00
2023-03-27T05:07:22.504Z,100.00
2023-03-27T05:08:25.415Z,100.00
2023-03-27T05:09:27.760Z,100.00
2023-03-27T05:10:30.121Z,100.00
2023-03-27T05:11:32.668Z,100.00
2023-03-27T05:12:35.451Z,100.00
2023-03-27T05:13:38.624Z,100.00
2023-03-27T05:14:41.499Z,100.00
2023-03-27T05:15:59.114Z,100.00
2023-03-27T05:17:03.154Z,100.00
2023-03-27T05:18:07.211Z,100.00
2023-03-27T05:19:11.449Z,100.00
2023-03-27T05:20:23.468Z,100.00
2023-03-27T05:21:25.976Z,100.00
2023-03-27T05:22:28.365Z,100.00
2023-03-27T05:23:40.906Z,100.00
2023-03-27T05:24:43.923Z,100.00
2023-03-27T05:25:59.736Z,100.00
2023-03-27T05:27:13.009Z,100.00
2023-03-27T05:28:18.768Z,100.00
2023-03-27T05:29:22.779Z,100.00
2023-03-27T05:30:33.534Z,100.00
2023-03-27T05:32:02.442Z,100.00
2023-03-27T05:33:16.377Z,100.00
2023-03-27T05:34:20.964Z,100.00
2023-03-27T05:35:28.337Z,100.00
2023-03-27T05:36:32.990Z,100.00
2023-03-27T05:37:36.833Z,100.00
2023-03-27T05:38:58.209Z,100.00
2023-03-27T05:40:06.922Z,100.00
2023-03-27T05:41:12.737Z,100.00
2023-03-27T05:42:20.716Z,100.00
2023-03-27T05:43:23.155Z,100.00
2023-03-27T05:44:25.635Z,100.00
2023-03-27T05:45:28.627Z,100.00
2023-03-27T05:46:31.484Z,100.00
2023-03-27T05:47:50.604Z,100.00
2023-03-27T05:48:52.926Z,100.00
2023-03-27T05:49:55.544Z,100.00
2023-03-27T05:50:58.321Z,100.00
2023-03-27T05:52:01.110Z,100.00
2023-03-27T05:53:10.044Z,100.00
2023-03-27T05:54:16.925Z,100.00
2023-03-27T05:55:30.618Z,100.00
2023-03-27T05:56:33.117Z,100.00
2023-03-27T05:57:39.710Z,100.00
2023-03-27T05:58:42.904Z,100.00
2023-03-27T05:59:45.269Z,100.00
2023-03-27T06:00:54.066Z,100.00
2023-03-27T06:01:58.825Z,100.00
2023-03-27T06:03:13.854Z,100.00
2023-03-27T06:04:35.354Z,100.00
2023-03-27T06:05:41.644Z,100.00
2023-03-27T06:06:45.372Z,100.00
2023-03-27T06:07:52.088Z,100.00
2023-03-27T06:08:55.440Z,100.00
2023-03-27T06:09:57.905Z,100.00
2023-03-27T06:11:18.356Z,100.00
2023-03-27T06:12:22.253Z,100.00
2023-03-27T06:13:28.572Z,100.00
2023-03-27T06:14:35.134Z,100.00
2023-03-27T06:15:57.433Z,100.00
2023-03-27T06:17:21.469Z,95.14
2023-03-27T06:18:28.965Z,83.13
2023-03-27T06:19:31.505Z,80.96
2023-03-27T06:20:35.451Z,85.88
2023-03-27T06:21:40.524Z,94.79
2023-03-27T06:22:52.087Z,100.00
2023-03-27T06:23:58.452Z,100.00
2023-03-27T06:25:05.742Z,100.00
2023-03-27T06:26:09.042Z,100.00
2023-03-27T06:27:11.461Z,100.00
2023-03-27T06:28:15.968Z,100.00
2023-03-27T06:29:24.757Z,100.00
2023-03-27T06:30:28.894Z,100.00
2023-03-27T06:31:51.141Z,100.00
2023-03-27T06:33:07.716Z,100.00
2023-03-27T06:34:12.807Z,100.00
2023-03-27T06:35:24.516Z,100.00
2023-03-27T06:36:34.911Z,100.00
2023-03-27T06:37:37.961Z,100.00
2023-03-27T06:38:41.057Z,100.00
2023-03-27T06:39:44.301Z,100.00
2023-03-27T06:40:46.887Z,100.00
2023-03-27T06:41:50.588Z,100.00
2023-03-27T06:43:12.018Z,100.00
2023-03-27T06:44:24.337Z,100.00
2023-03-27T06:45:50.788Z,100.00
2023-03-27T06:47:11.462Z,100.00
2023-03-27T06:48:34.044Z,100.00
2023-03-27T06:49:39.440Z,100.00
2023-03-27T06:50:52.310Z,100.00
2023-03-27T06:51:55.333Z,100.00
2023-03-27T06:52:59.351Z,100.00
2023-03-27T06:54:17.138Z,100.00
2023-03-27T06:55:26.358Z,100.00
2023-03-27T06:56:29.787Z,100.00
2023-03-27T06:57:55.112Z,100.00
2023-03-27T06:58:57.445Z,100.00
2023-03-27T07:00:19.806Z,100.00
2023-03-27T07:01:46.249Z,100.00
2023-03-27T07:03:01.224Z,100.00
2023-03-27T07:04:39.222Z,100.00
2023-03-27T07:05:49.815Z,100.00
2023-03-27T07:06:52.461Z,100.00
2023-03-27T07:07:57.444Z,100.00
2023-03-27T07:09:03.856Z,100.00
2023-03-27T07:10:09.020Z,100.00
2023-03-27T07:11:12.673Z,100.00
2023-03-27T07:12:47.608Z,100.00
2023-03-27T07:13:52.116Z,100.00
2023-03-27T07:15:06.089Z,100.00
2023-03-27T07:16:12.436Z,100.00
2023-03-27T07:17:15.068Z,100.00
2023-03-27T07:18:23.650Z,100.00
2023-03-27T07:19:30.730Z,100.00
2023-03-27T07:20:43.392Z,100.00
2023-03-27T07:21:50.186Z,100.00
2023-03-27T07:22:53.676Z,100.00
2023-03-27T07:24:07.455Z,100.00
2023-03-27T07:25:12.921Z,100.00
2023-03-27T07:26:18.434Z,100.00
2023-03-27T07:27:33.986Z,100.00
2023-03-27T07:28:38.894Z,100.00
2023-03-27T07:29:45.998Z,100.00
2023-03-27T07:30:56.273Z,100.00
2023-03-27T07:32:02.830Z,100.00
2023-03-27T07:33:18.695Z,100.00
2023-03-27T07:34:21.535Z,100.00
2023-03-27T07:35:47.462Z,100.00
2023-03-27T07:37:08.367Z,100.00
2023-03-27T07:38:15.037Z,100.00
2023-03-27T07:39:17.825Z,100.00
2023-03-27T07:40:29.335Z,100.00
2023-03-27T07:41:56.121Z,100.00
2023-03-27T07:43:13.597Z,100.00
2023-03-27T07:44:20.288Z,100.00
2023-03-27T07:45:34.785Z,100.00
2023-03-27T07:46:37.968Z,100.00
2023-03-27T07:47:41.595Z,100.00
2023-03-27T07:48:45.443Z,100.00
2023-03-27T07:49:52.080Z,100.00
2023-03-27T07:52:09.168Z,100.00
2023-03-27T07:53:33.610Z,100.00
2023-03-27T07:54:45.201Z,100.00
2023-03-27T07:55:52.266Z,100.00
2023-03-27T07:56:54.588Z,100.00
2023-03-27T07:58:09.012Z,100.00
2023-03-27T07:59:13.727Z,100.00
2023-03-27T08:00:17.950Z,100.00
2023-03-27T08:01:27.775Z,100.00
2023-03-27T08:02:30.661Z,100.00
2023-03-27T08:03:33.380Z,98.16
2023-03-27T08:04:37.004Z,97.55
2023-03-27T08:05:41.830Z,96.21
2023-03-27T08:06:47.213Z,92.08
2023-03-27T08:07:56.063Z,93.21
2023-03-27T08:09:18.055Z,90.91
2023-03-27T08:10:21.784Z,93.77
2023-03-27T08:11:33.347Z,96.40
2023-03-27T08:12:36.134Z,93.87
2023-03-27T08:13:39.672Z,90.52
2023-03-27T08:14:45.650Z,89.19
2023-03-27T08:16:13.205Z,88.13
2023-03-27T08:17:17.708Z,86.27
2023-03-27T08:18:21.952Z,84.41
2023-03-27T08:19:25.185Z,86.70
2023-03-27T08:20:33.944Z,89.12
2023-03-27T08:21:36.503Z,91.14
2023-03-27T08:22:39.470Z,89.56
2023-03-27T08:24:04.578Z,82.64
2023-03-27T08:25:12.693Z,78.38
2023-03-27T08:26:16.051Z,78.13
2023-03-27T08:27:28.060Z,82.13
2023-03-27T08:28:32.576Z,81.23
2023-03-27T08:29:34.875Z,83.55
2023-03-27T08:30:37.759Z,83.39
2023-03-27T08:31:40.976Z,81.76
2023-03-27T08:32:44.182Z,81.49
2023-03-27T08:33:47.248Z,79.80
2023-03-27T08:34:57.039Z,79.84
2023-03-27T08:35:59.867Z,78.97
2023-03-27T08:37:03.953Z,75.78
2023-03-27T08:38:26.275Z,75.16
2023-03-27T08:39:39.499Z,78.05
2023-03-27T08:40:48.257Z,80.83
2023-03-27T08:42:06.841Z,81.31
2023-03-27T08:43:17.695Z,81.73
2023-03-27T08:44:23.877Z,84.23
2023-03-27T08:45:32.371Z,87.10
2023-03-27T08:47:05.587Z,85.75
2023-03-27T08:48:22.199Z,83.81
2023-03-27T08:49:28.601Z,84.88
2023-03-27T08:51:05.191Z,85.92
2023-03-27T08:52:15.630Z,90.61
2023-03-27T08:53:40.997Z,84.05
2023-03-27T08:54:53.538Z,81.23
2023-03-27T08:56:05.174Z,76.92
2023-03-27T08:57:24.445Z,78.58
2023-03-27T08:58:34.513Z,77.79
2023-03-27T08:59:59.941Z,74.12
2023-03-27T09:01:09.519Z,77.99
2023-03-27T09:02:36.546Z,78.10
2023-03-27T09:03:59.936Z,76.82
2023-03-27T09:05:14.777Z,70.29
2023-03-27T09:06:26.960Z,68.69
2023-03-27T09:07:50.125Z,71.50
2023-03-27T09:09:29.402Z,71.17
2023-03-27T09:10:49.630Z,72.35
2023-03-27T09:12:37.410Z,73.04
2023-03-27T09:13:45.834Z,71.75
2023-03-27T09:15:22.087Z,70.71
2023-03-27T09:16:38.066Z,75.37
2023-03-27T09:17:52.646Z,71.57
2023-03-27T09:19:20.313Z,69.47
2023-03-27T09:20:32.339Z,68.97
2023-03-27T09:21:45.021Z,67.13
2023-03-27T09:23:01.286Z,65.45
2023-03-27T09:24:48.557Z,65.45
2023-03-27T09:26:21.781Z,72.26
2023-03-27T09:27:43.281Z,73.94
2023-03-27T09:29:20.665Z,78.35
2023-03-27T09:30:33.733Z,71.04
2023-03-27T09:31:53.112Z,67.25
2023-03-27T09:33:03.738Z,63.79
2023-03-27T09:34:12.948Z,60.68
2023-03-27T09:35:18.029Z,59.64
2023-03-27T09:36:21.878Z,59.35
2023-03-27T09:37:27.585Z,60.45
2023-03-27T09:38:37.772Z,60.86
2023-03-27T09:39:48.446Z,63.76
2023-03-27T09:41:03.207Z,66.35
2023-03-27T09:42:17.332Z,64.89
2023-03-27T09:43:26.362Z,64.97
2023-03-27T09:44:41.448Z,64.52
2023-03-27T09:45:45.140Z,66.10
2023-03-27T09:46:56.895Z,66.05
2023-03-27T09:48:05.309Z,69.69
2023-03-27T09:49:19.880Z,68.66
2023-03-27T09:50:41.383Z,67.30
2023-03-27T09:51:54.508Z,67.71
2023-03-27T09:53:23.000Z,64.97
2023-03-27T09:54:53.942Z,64.22
2023-03-27T09:56:14.450Z,62.04
2023-03-27T09:57:21.363Z,58.73
2023-03-27T09:58:27.796Z,56.45
2023-03-27T09:59:54.801Z,55.03
2023-03-27T10:01:09.323Z,52.93
2023-03-27T10:02:22.727Z,54.51
2023-03-27T10:03:25.660Z,55.05
2023-03-27T10:04:33.058Z,55.61
2023-03-27T10:05:38.904Z,54.30
2023-03-27T10:07:06.798Z,54.57
2023-03-27T10:08:37.856Z,50.67
2023-03-27T10:09:44.092Z,48.33
2023-03-27T10:10:56.032Z,49.50
2023-03-27T10:12:19.713Z,48.79
2023-03-27T10:13:27.280Z,48.55
2023-03-27T10:14:34.441Z,48.69
2023-03-27T10:15:38.849Z,47.98
2023-03-27T10:16:46.159Z,46.46
2023-03-27T10:17:49.294Z,46.02
2023-03-27T10:18:56.967Z,48.02
2023-03-27T10:20:13.390Z,52.62
2023-03-27T10:21:31.747Z,52.74
2023-03-27T10:22:40.002Z,49.39
2023-03-27T10:23:46.394Z,50.47
2023-03-27T10:25:22.689Z,54.74
2023-03-27T10:26:39.457Z,54.60
2023-03-27T10:27:43.706Z,55.51
2023-03-27T10:29:31.951Z,53.60
2023-03-27T10:30:37.907Z,51.73
2023-03-27T10:32:04.260Z,49.71
2023-03-27T10:33:39.845Z,47.82
2023-03-27T10:35:21.391Z,48.48
2023-03-27T10:36:57.325Z,49.24
2023-03-27T10:38:07.439Z,49.81
2023-03-27T10:39:27.749Z,51.94
2023-03-27T10:40:43.827Z,52.03
2023-03-27T10:41:51.591Z,56.05
2023-03-27T10:42:59.408Z,54.20
2023-03-27T10:44:06.943Z,51.86
2023-03-27T10:45:16.526Z,51.47
2023-03-27T10:46:23.082Z,48.80
2023-03-27T10:47:30.859Z,48.76
2023-03-27T10:49:04.378Z,47.32
2023-03-27T10:50:12.488Z,48.79
2023-03-27T10:51:46.865Z,45.63
2023-03-27T10:53:20.523Z,46.62
2023-03-27T10:54:39.766Z,48.57
2023-03-27T10:56:10.725Z,50.42
2023-03-27T10:57:19.705Z,51.77
2023-03-27T10:58:33.801Z,53.48
2023-03-27T10:59:53.908Z,53.58
2023-03-27T11:01:26.253Z,52.60
2023-03-27T11:02:39.817Z,50.54
2023-03-27T11:04:01.873Z,50.05
2023-03-27T11:05:15.484Z,49.21
2023-03-27T11:06:20.777Z,50.58
2023-03-27T11:07:37.884Z,49.57
2023-03-27T11:08:42.408Z,47.97
2023-03-27T11:09:56.414Z,47.14
2023-03-27T11:11:15.569Z,49.91
2023-03-27T11:12:23.740Z,47.79
2023-03-27T11:13:32.410Z,45.57
2023-03-27T11:15:17.201Z,46.79
2023-03-27T11:16:35.009Z,47.84
2023-03-27T11:18:10.657Z,47.64
2023-03-27T11:19:44.943Z,50.75
2023-03-27T11:21:12.704Z,49.14
2023-03-27T11:22:32.855Z,50.94
2023-03-27T11:23:56.530Z,52.34
2023-03-27T11:25:32.489Z,49.72
2023-03-27T11:26:50.566Z,48.73
2023-03-27T11:28:14.083Z,47.04
2023-03-27T11:29:25.483Z,48.54
2023-03-27T11:30:38.271Z,50.94
2023-03-27T11:31:46.691Z,52.78
2023-03-27T11:33:09.552Z,53.31
2023-03-27T11:34:29.806Z,53.36
2023-03-27T11:35:50.182Z,55.06
2023-03-27T11:37:38.240Z,57.21
2023-03-27T11:38:47.036Z,56.70
2023-03-27T11:39:59.570Z,58.88
2023-03-27T11:41:01.919Z,58.45
2023-03-27T11:42:16.178Z,56.75
2023-03-27T11:43:20.521Z,57.14
2023-03-27T11:44:25.443Z,54.94
2023-03-27T11:46:11.641Z,52.64
2023-03-27T11:47:58.245Z,54.88
2023-03-27T11:49:32.387Z,53.67
2023-03-27T11:50:41.193Z,51.94
2023-03-27T11:51:47.210Z,51.54
2023-03-27T11:53:08.290Z,53.08
2023-03-27T11:54:55.388Z,54.46
2023-03-27T11:56:26.804Z,58.41
2023-03-27T11:57:52.132Z,59.82
2023-03-27T11:59:28.346Z,57.92
2023-03-27T12:00:45.064Z,56.34
2023-03-27T12:01:55.944Z,60.43
2023-03-27T12:03:12.495Z,60.49
2023-03-27T12:04:36.691Z,63.89
2023-03-27T12:06:06.664Z,62.78
2023-03-27T12:07:35.951Z,60.01
2023-03-27T12:09:22.248Z,58.72
2023-03-27T12:10:48.806Z,60.09
2023-03-27T12:12:38.040Z,58.52
2023-03-27T12:14:31.015Z,62.50
2023-03-27T12:16:06.506Z,60.71
2023-03-27T12:17:47.830Z,58.81
2023-03-27T12:19:13.717Z,59.60
2023-03-27T12:20:33.269Z,57.19
2023-03-27T12:21:58.419Z,57.36
2023-03-27T12:23:18.442Z,57.74
2023-03-27T12:25:21.434Z,56.43
2023-03-27T12:27:11.050Z,58.14
2023-03-27T12:28:46.656Z,57.20
2023-03-27T12:30:14.160Z,60.02
2023-03-27T12:31:52.783Z,61.26
2023-03-27T12:33:20.004Z,61.61
2023-03-27T12:34:50.203Z,61.96
2023-03-27T12:35:57.923Z,62.53
2023-03-27T12:37:01.797Z,67.60
2023-03-27T12:38:14.179Z,68.99
2023-03-27T12:39:22.195Z,67.45
2023-03-27T12:40:37.924Z,70.62
2023-03-27T12:41:45.300Z,73.45
2023-03-27T12:43:11.541Z,76.10
2023-03-27T12:44:17.166Z,79.43
2023-03-27T12:45:27.004Z,85.86
2023-03-27T12:46:35.425Z,93.66
2023-03-27T12:47:37.764Z,100.00
2023-03-27T12:49:02.137Z,100.00
2023-03-27T12:50:18.114Z,100.00
2023-03-27T12:52:04.214Z,100.00
2023-03-27T12:53:35.677Z,100.00
2023-03-27T12:55:06.168Z,100.00
2023-03-27T12:56:33.693Z,100.00
2023-03-27T12:57:46.603Z,100.00
2023-03-27T12:58:55.241Z,100.00
2023-03-27T13:00:25.729Z,100.00
2023-03-27T13:01:45.554Z,100.00
2023-03-27T13:03:27.480Z,100.00
2023-03-27T13:04:38.936Z,100.00
2023-03-27T13:05:47.971Z,100.00
2023-03-27T13:07:12.778Z,100.00
2023-03-27T13:08:48.567Z,100.00
2023-03-27T13:10:20.594Z,100.00
2023-03-27T13:12:02.679Z,100.00
2023-03-27T13:13:45.622Z,100.00
2023-03-27T13:15:11.605Z,100.00
2023-03-27T13:16:20.050Z,100.00
2023-03-27T13:17:51.415Z,100.00
2023-03-27T13:19:27.332Z,100.00
2023-03-27T13:21:08.683Z,100.00
2023-03-27T13:22:37.402Z,100.00
2023-03-27T13:23:51.577Z,100.00
2023-03-27T13:25:13.342Z,100.00
2023-03-27T13:26:15.715Z,100.00
2023-03-27T13:27:40.671Z,100.00
2023-03-27T13:28:53.007Z,100.00
2023-03-27T13:29:56.091Z,100.00
2023-03-27T13:31:11.042Z,100.00
2023-03-27T13:32:40.268Z,100.00
2023-03-27T13:34:13.631Z,100.00
2023-03-27T13:35:17.303Z,100.00
2023-03-27T13:36:23.046Z,100.00
2023-03-27T13:37:36.900Z,100.00
2023-03-27T13:39:08.318Z,100.00
2023-03-27T13:40:24.195Z,100.00
2023-03-27T13:41:44.469Z,100.00
2023-03-27T13:43:21.976Z,100.00
2023-03-27T13:44:51.021Z,100.00
2023-03-27T13:46:05.358Z,100.00
2023-03-27T13:47:34.927Z,100.00
2023-03-27T13:48:43.324Z,100.00
2023-03-27T13:50:14.123Z,100.00
2023-03-27T13:51:34.158Z,100.00
2023-03-27T13:53:12.635Z,100.00
2023-03-27T13:55:00.735Z,100.00
2023-03-27T13:56:41.322Z,100.00
2023-03-27T13:57:58.439Z,100.00
2023-03-27T13:59:22.173Z,100.00
2023-03-27T14:00:38.370Z,100.00
2023-03-27T14:02:38.985Z,100.00
2023-03-27T14:03:48.559Z,100.00
2023-03-27T14:05:12.707Z,100.00
2023-03-27T14:06:28.794Z,100.00
2023-03-27T14:07:52.414Z,100.00
2023-03-27T14:09:15.467Z,100.00
2023-03-27T14:10:54.602Z,100.00
2023-03-27T14:12:34.503Z,100.00
2023-03-27T14:14:14.266Z,100.00
2023-03-27T14:15:27.846Z,100.00
2023-03-27T14:17:05.978Z,100.00
2023-03-27T14:18:39.301Z,100.00
2023-03-27T14:19:53.419Z,100.00
2023-03-27T14:21:02.158Z,100.00
2023-03-27T14:22:19.848Z,100.00
2023-03-27T14:23:34.918Z,100.00
2023-03-27T14:25:04.834Z,100.00
2023-03-27T14:26:24.619Z,100.00
2023-03-27T14:27:30.605Z,100.00
2023-03-27T14:28:49.322Z,100.00
2023-03-27T14:30:26.246Z,100.00
2023-03-27T14:31:44.683Z,100.00
2023-03-27T14:33:09.826Z,100.00
2023-03-27T14:34:22.312Z,100.00
2023-03-27T14:35:29.356Z,100.00
2023-03-27T14:36:49.753Z,100.00
2023-03-27T14:38:01.141Z,100.00
2023-03-27T14:39:22.280Z,100.00
2023-03-27T14:40:36.660Z,100.00
2023-03-27T14:41:56.166Z,100.00
2023-03-27T14:43:01.008Z,100.00
2023-03-27T14:44:04.782Z,100.00
2023-03-27T14:45:27.310Z,100.00
2023-03-27T14:46:31.178Z,100.00
2023-03-27T14:47:36.202Z,100.00
2023-03-27T14:48:42.423Z,100.00
2023-03-27T14:49:51.383Z,100.00
2023-03-27T14:51:15.620Z,100.00
2023-03-27T14:52:33.325Z,100.00
2023-03-27T14:54:02.856Z,100.00
2023-03-27T14:55:18.067Z,100.00
2023-03-27T14:56:37.413Z,100.00
2023-03-27T14:58:10.880Z,100.00
2023-03-27T14:59:21.324Z,100.00
2023-03-27T15:00:32.074Z,100.00
2023-03-27T15:01:35.150Z,100.00
2023-03-27T15:02:39.246Z,100.00
2023-03-27T15:03:45.942Z,100.00
2023-03-27T15:04:48.648Z,100.00
2023-03-27T15:06:26.400Z,100.00
2023-03-27T15:07:34.989Z,100.00
2023-03-27T15:09:16.053Z,100.00
2023-03-27T15:10:37.240Z,100.00
2023-03-27T15:11:48.186Z,100.00
2023-03-27T15:12:55.915Z,100.00
2023-03-27T15:13:58.254Z,100.00
2023-03-27T15:15:16.951Z,100.00
2023-03-27T15:16:24.643Z,100.00
2023-03-27T15:17:30.416Z,100.00
2023-03-27T15:18:50.804Z,100.00
2023-03-27T15:20:10.258Z,100.00
2023-03-27T15:21:26.149Z,100.00
2023-03-27T15:22:33.641Z,100.00
2023-03-27T15:23:45.468Z,100.00
2023-03-27T15:24:52.994Z,100.00
2023-03-27T15:26:06.858Z,100.00
2023-03-27T15:27:23.084Z,100.00
2023-03-27T15:28:33.848Z,100.00
2023-03-27T15:29:42.519Z,100.00
2023-03-27T15:30:53.850Z,100.00
2023-03-27T15:31:59.730Z,100.00
2023-03-27T15:33:04.190Z,100.00
2023-03-27T15:34:35.028Z,100.00
2023-03-27T15:35:41.866Z,100.00
2023-03-27T15:36:54.862Z,100.00
2023-03-27T15:37:57.976Z,100.00
2023-03-27T15:39:01.884Z,100.00
2023-03-27T15:40:51.451Z,100.00
2023-03-27T15:42:02.599Z,100.00
2023-03-27T15:43:13.876Z,100.00
2023-03-27T15:44:18.977Z,100.00
2023-03-27T15:45:34.097Z,100.00
2023-03-27T15:46:53.885Z,100.00
2023-03-27T15:48:00.934Z,100.00
2023-03-27T15:49:28.574Z,100.00
2023-03-27T15:50:31.285Z,100.00
2023-03-27T15:51:34.213Z,100.00
2023-03-27T15:52:36.431Z,100.00
2023-03-27T15:53:45.026Z,100.00
2023-03-27T15:54:54.564Z,100.00
2023-03-27T15:55:57.692Z,100.00
2023-03-27T15:57:11.553Z,100.00
2023-03-27T15:58:30.344Z,100.00
2023-03-27T15:59:33.880Z,100.00
2023-03-27T16:00:36.273Z,100.00
2023-03-27T16:01:42.111Z,100.00
2023-03-27T16:02:47.755Z,100.00
2023-03-27T16:03:51.281Z,100.00
2023-03-27T16:04:58.087Z,100.00
2023-03-27T16:06:02.615Z,100.00
2023-03-27T16:07:27.351Z,100.00
2023-03-27T16:08:36.454Z,100.00
2023-03-27T16:09:59.708Z,100.00
2023-03-27T16:11:02.572Z,100.00
2023-03-27T16:12:06.450Z,100.00
2023-03-27T16:13:25.303Z,100.00
2023-03-27T16:14:40.715Z,100.00
2023-03-27T16:15:57.896Z,100.00
2023-03-27T16:17:10.028Z,100.00
2023-03-27T16:18:25.683Z,100.00
2023-03-27T16:19:28.073Z,100.00
2023-03-27T16:20:33.454Z,100.00
2023-03-27T16:21:36.240Z,100.00
2023-03-27T16:22:39.412Z,100.00
2023-03-27T16:23:42.269Z,100.00
2023-03-27T16:24:44.554Z,100.00
2023-03-27T16:25:46.904Z,100.00
2023-03-27T16:26:50.632Z,100.00
2023-03-27T16:27:56.937Z,100.00
2023-03-27T16:29:04.556Z,100.00
2023-03-27T16:30:09.850Z,100.00
2023-03-27T16:31:14.914Z,100.00
2023-03-27T16:32:18.739Z,100.00
2023-03-27T16:33:22.707Z,100.00
2023-03-27T16:34:25.370Z,100.00
2023-03-27T16:35:31.025Z,100.00
2023-03-27T16:36:33.650Z,100.00
2023-03-27T16:37:35.946Z,100.00
2023-03-27T16:38:46.300Z,100.00
2023-03-27T16:39:49.884Z,100.00
2023-03-27T16:40:52.400Z,100.00
2023-03-27T16:41:54.760Z,100.00
2023-03-27T16:42:57.189Z,100.00
2023-03-27T16:43:59.743Z,100.00
2023-03-27T16:45:02.453Z,100.00
2023-03-27T16:46:05.889Z,100.00
2023-03-27T16:47:08.638Z,100.00
2023-03-27T16:48:11.600Z,100.00
2023-03-27T16:49:15.008Z,100.00
2023-03-27T16:50:21.740Z,100.00
2023-03-27T16:51:27.439Z,100.00
2023-03-27T16:52:30.023Z,100.00
2023-03-27T16:53:32.354Z,100.00
2023-03-27T16:54:34.667Z,100.00
2023-03-27T16:55:36.919Z,100.00
2023-03-27T16:56:39.281Z,100.00
2023-03-27T16:57:42.508Z,100.00
2023-03-27T16:58:44.952Z,100.00
2023-03-27T16:59:47.232Z,100.00
2023-03-27T17:00:49.647Z,100.00
2023-03-27T17:01:52.022Z,100.00
2023-03-27T17:02:54.304Z,100.00
2023-03-27T17:03:57.017Z,100.00
2023-03-27T17:04:59.324Z,100.00
2023-03-27T17:06:02.709Z,100.00
2023-03-27T17:07:06.214Z,100.00
2023-03-27T17:08:08.820Z,100.00
2023-03-27T17:09:12.493Z,100.00
2023-03-27T17:10:18.229Z,100.00
2023-03-27T17:11:21.785Z,100.00
2023-03-27T17:12:24.734Z,100.00
2023-03-27T17:13:27.370Z,100.00
2023-03-27T17:14:29.796Z,100.00
2023-03-27T17:15:36.095Z,100.00
2023-03-27T17:16:38.757Z,100.00
2023-03-27T17:17:41.419Z,100.00
2023-03-27T17:18:44.284Z,100.00
2023-03-27T17:19:46.905Z,100.00
2023-03-27T17:20:49.313Z,100.00
2023-03-27T17:21:51.771Z,100.00
2023-03-27T17:22:54.127Z,100.00
2023-03-27T17:23:58.281Z,100.00
2023-03-27T17:25:02.404Z,100.00
2023-03-27T17:26:05.245Z,100.00
2023-03-27T17:27:07.646Z,100.00
2023-03-27T17:28:10.695Z,100.00
2023-03-27T17:29:13.207Z,100.00
2023-03-27T17:30:30.613Z,100.00
2023-03-27T17:31:39.892Z,100.00
2023-03-27T17:32:42.776Z,100.00
2023-03-27T17:33:45.425Z,100.00
2023-03-27T17:34:48.853Z,100.00
2023-03-27T17:35:51.213Z,100.00
2023-03-27T17:36:54.874Z,100.00
2023-03-27T17:37:57.278Z,100.00
2023-03-27T17:39:02.665Z,100.00
2023-03-27T17:40:09.839Z,100.00
2023-03-27T17:41:14.484Z,100.00
2023-03-27T17:42:17.406Z,100.00
2023-03-27T17:43:19.964Z,100.00
2023-03-27T17:44:22.442Z,100.00
2023-03-27T17:45:24.798Z,100.00
2023-03-27T17:46:27.272Z,100.00
2023-03-27T17:47:29.659Z,100.00
2023-03-27T17:48:36.178Z,100.00
2023-03-27T17:49:38.657Z,100.00
2023-03-27T17:50:41.024Z,100.00
2023-03-27T17:51:43.419Z,100.00
2023-03-27T17:52:45.941Z,100.00
2023-03-27T17:53:48.427Z,100.00
2023-03-27T17:54:51.519Z,100.00
2023-03-27T17:55:53.927Z,100.00
2023-03-27T17:56:56.391Z,100.00
2023-03-27T18:04:31.119Z,100.00
2023-03-27T18:05:38.316Z,100.00
2023-03-27T18:06:41.000Z,100.00
2023-03-27T18:07:43.739Z,100.00